createdAt,value
2022-10-19T00:05:18.751Z,89.72
2022-10-19T00:15:19.090Z,93.51
2022-10-19T00:25:19.132Z,93.25
2022-10-19T00:35:19.431Z,94.21
2022-10-19T00:45:19.470Z,94.11
2022-10-19T00:55:19.774Z,93.90
2022-10-19T01:05:19.807Z,93.40
2022-10-19T01:15:20.137Z,93.85
2022-10-19T01:25:20.163Z,94.50
2022-10-19T01:35:20.481Z,94.20
2022-10-19T01:45:20.522Z,93.43
2022-10-19T01:55:20.838Z,94.34
2022-10-19T02:05:20.870Z,93.73
2022-10-19T02:15:21.169Z,95.00
2022-10-19T02:25:21.346Z,95.81
2022-10-19T02:35:21.424Z,95.45
2022-10-19T02:45:21.459Z,95.45
2022-10-19T02:55:21.766Z,94.53
2022-10-19T03:05:21.805Z,96.11
2022-10-19T03:15:22.158Z,97.17
2022-10-19T03:25:22.194Z,98.61
2022-10-19T03:35:22.469Z,98.10
2022-10-19T03:45:22.513Z,97.38
2022-10-19T03:55:22.820Z,96.61
2022-10-19T04:05:22.846Z,97.47
2022-10-19T04:15:23.177Z,97.33
2022-10-19T04:25:23.195Z,96.71
2022-10-19T04:35:23.526Z,96.71
2022-10-19T04:45:23.549Z,96.25
2022-10-19T04:55:23.867Z,96.14
2022-10-19T05:05:23.882Z,95.43
2022-10-19T05:15:24.218Z,95.63
2022-10-19T05:25:24.252Z,94.55
2022-10-19T05:35:24.568Z,94.92
2022-10-19T05:45:24.589Z,95.47
2022-10-19T05:55:24.915Z,95.51
2022-10-19T06:05:24.935Z,97.46
2022-10-19T06:15:25.264Z,98.49
2022-10-19T06:25:25.293Z,98.49
2022-10-19T06:35:25.620Z,99.06
2022-10-19T06:45:25.640Z,95.35
2022-10-19T06:55:25.963Z,93.88
2022-10-19T07:05:25.995Z,93.93
2022-10-19T07:15:26.314Z,92.77
2022-10-19T07:25:26.336Z,92.72
2022-10-19T07:35:26.664Z,91.52
2022-10-19T07:45:26.788Z,90.01
2022-10-19T07:55:26.913Z,87.55
2022-10-19T08:05:27.067Z,86.25
2022-10-19T08:15:27.180Z,84.67
2022-10-19T08:25:27.502Z,83.03
2022-10-19T08:35:27.624Z,80.40
2022-10-19T08:45:27.641Z,81.54
2022-10-19T08:55:27.965Z,77.99
2022-10-19T09:05:27.992Z,77.95
2022-10-19T09:15:28.329Z,76.71
2022-10-19T09:25:28.351Z,76.10
2022-10-19T09:35:28.665Z,73.95
2022-10-19T09:45:28.689Z,72.64
2022-10-19T09:55:29.019Z,73.21
2022-10-19T10:05:29.043Z,71.97
2022-10-19T10:15:29.357Z,71.77
2022-10-19T10:25:29.375Z,70.06
2022-10-19T10:35:29.718Z,68.69
2022-10-19T10:45:29.734Z,68.19
2022-10-19T10:55:30.068Z,65.29
2022-10-19T11:05:30.095Z,66.49
2022-10-19T11:25:30.582Z,67.30
2022-10-19T11:35:30.867Z,66.63
2022-10-19T11:45:30.900Z,66.09
2022-10-19T11:55:31.233Z,66.83
2022-10-19T12:05:31.260Z,64.54
2022-10-19T12:15:31.565Z,63.07
2022-10-19T12:25:31.594Z,65.40
2022-10-19T12:35:31.915Z,63.31
2022-10-19T12:45:31.948Z,66.06
2022-10-19T12:55:32.274Z,66.33
2022-10-19T13:05:32.307Z,65.20
2022-10-19T13:15:32.623Z,64.58
2022-10-19T13:25:32.661Z,65.91
2022-10-19T13:35:32.964Z,65.80
2022-10-19T13:45:32.986Z,65.14
2022-10-19T13:55:33.312Z,65.04
2022-10-19T14:05:33.362Z,67.30
2022-10-19T14:15:33.677Z,67.19
2022-10-19T14:25:33.686Z,70.43
2022-10-19T14:35:33.905Z,72.53
2022-10-19T14:45:33.940Z,75.71
2022-10-19T14:55:34.278Z,75.04
2022-10-19T15:05:34.306Z,77.59
2022-10-19T15:15:34.608Z,76.68
2022-10-19T15:25:34.708Z,77.83
2022-10-19T15:35:34.859Z,78.83
2022-10-19T15:45:34.888Z,79.91
2022-10-19T15:55:35.210Z,80.01
2022-10-19T16:05:35.248Z,80.31
2022-10-19T16:15:35.731Z,80.95
2022-10-19T16:25:35.670Z,81.29
2022-10-19T16:35:35.833Z,83.28
2022-10-19T16:45:35.863Z,83.72
2022-10-19T16:55:36.380Z,83.97
2022-10-19T17:05:36.532Z,84.27
2022-10-19T17:15:42.838Z,84.61
2022-10-19T17:25:39.655Z,85.66
2022-10-19T17:35:37.153Z,86.61
2022-10-19T17:45:37.197Z,87.36
2022-10-19T17:55:37.471Z,87.70
2022-10-19T18:05:37.961Z,87.40
2022-10-19T18:15:37.654Z,87.84
2022-10-19T18:25:53.541Z,88.49
2022-10-19T18:35:38.559Z,87.79
2022-10-19T18:45:38.111Z,86.98
2022-10-19T18:55:38.259Z,87.93
2022-10-19T19:05:38.886Z,88.48
2022-10-19T19:15:38.861Z,89.63
2022-10-19T19:25:38.934Z,89.83
2022-10-19T19:35:40.579Z,91.74
2022-10-19T19:45:39.105Z,90.62
2022-10-19T19:55:39.471Z,90.53
2022-10-19T20:05:39.706Z,90.77
2022-10-19T20:15:39.836Z,90.71
2022-10-19T20:25:40.019Z,92.54
2022-10-19T20:35:40.063Z,92.07
2022-10-19T20:45:40.238Z,92.28
2022-10-19T20:55:40.304Z,91.47
2022-10-19T21:05:41.014Z,92.22
2022-10-19T21:15:40.796Z,92.57
2022-10-19T21:25:40.872Z,93.18
2022-10-19T21:35:41.016Z,93.52
2022-10-19T21:45:41.122Z,93.79
2022-10-19T21:55:41.146Z,93.18
2022-10-19T22:05:41.380Z,93.02
2022-10-19T22:15:41.599Z,93.83
2022-10-19T22:25:41.936Z,93.67
2022-10-19T22:35:41.967Z,93.83
2022-10-19T22:45:42.287Z,94.79
2022-10-19T22:55:42.389Z,94.13
2022-10-19T23:05:42.538Z,93.67
2022-10-19T23:15:43.981Z,93.87
2022-10-19T23:25:42.852Z,94.63
2022-10-19T23:35:42.880Z,94.17
2022-10-19T23:45:43.131Z,93.55
2022-10-19T23:55:43.352Z,95.68
